createdAt,value
2022-08-05T00:03:18.865Z,95090.25
2022-08-05T00:07:01.556Z,95088.06
2022-08-05T00:11:28.007Z,95089.66
2022-08-05T00:15:54.470Z,95080.06
2022-08-05T00:19:16.419Z,95079.66
2022-08-05T00:23:12.797Z,95079.66
2022-08-05T00:26:55.944Z,95076.47
2022-08-05T00:30:41.194Z,95068.09
2022-08-05T00:34:53.629Z,95064.72
2022-08-05T00:38:33.787Z,95064.91
2022-08-05T00:42:31.580Z,95074.19
2022-08-05T00:46:16.542Z,95065.13
2022-08-05T00:49:59.478Z,95066.31
2022-08-05T00:54:00.466Z,95063.31
2022-08-05T00:57:58.168Z,95057.84
2022-08-05T01:01:48.733Z,95069.66
2022-08-05T01:05:32.050Z,95056.41
2022-08-05T01:09:19.821Z,95061.94
2022-08-05T01:13:13.190Z,95057.53
2022-08-05T01:17:07.187Z,95061.66
2022-08-05T01:20:55.062Z,95066.59
2022-08-05T01:24:48.843Z,95063.53
2022-08-05T01:28:37.257Z,95072.25
2022-08-05T01:32:24.791Z,95058.03
2022-08-05T01:36:16.023Z,95063.69
2022-08-05T01:39:59.877Z,95061.28
2022-08-05T01:43:44.708Z,95068.03
2022-08-05T01:47:39.631Z,95066.72
2022-08-05T01:51:23.175Z,95062.75
2022-08-05T01:55:08.690Z,95065.41
2022-08-05T01:58:55.024Z,95070.28
2022-08-05T02:02:46.453Z,95062.81
2022-08-05T02:06:38.770Z,95064.19
2022-08-05T02:10:28.362Z,95064.00
2022-08-05T02:14:17.031Z,95061.41
2022-08-05T02:18:33.210Z,95061.69
2022-08-05T02:22:25.364Z,95065.81
2022-08-05T02:26:11.887Z,95061.59
2022-08-05T02:29:59.887Z,95065.44
2022-08-05T02:33:48.412Z,95061.72
2022-08-05T02:37:32.525Z,95056.34
2022-08-05T02:41:17.873Z,95060.34
2022-08-05T02:45:02.988Z,95066.50
2022-08-05T02:48:49.102Z,95061.72
2022-08-05T02:52:35.069Z,95060.66
2022-08-05T02:56:18.980Z,95053.78
2022-08-05T03:00:03.460Z,95054.41
2022-08-05T03:04:02.733Z,95051.28
2022-08-05T03:08:06.749Z,95053.97
2022-08-05T03:12:08.907Z,95052.16
2022-08-05T03:15:53.677Z,95058.38
2022-08-05T03:19:38.728Z,95055.75
2022-08-05T03:23:24.693Z,95048.84
2022-08-05T03:27:07.639Z,95056.66
2022-08-05T03:30:50.870Z,95050.03
2022-08-05T03:34:35.460Z,95054.94
2022-08-05T03:38:32.627Z,95050.69
2022-08-05T03:42:16.210Z,95038.38
2022-08-05T03:45:59.109Z,95045.34
2022-08-05T03:49:52.136Z,95046.38
2022-08-05T03:55:53.094Z,95038.84
2022-08-05T03:57:43.008Z,95049.81
2022-08-05T04:01:29.131Z,95040.13
2022-08-05T04:05:17.365Z,95049.47
2022-08-05T04:09:00.517Z,95040.88
2022-08-05T04:16:32.296Z,95048.84
2022-08-05T04:20:20.814Z,95052.03
2022-08-05T04:24:09.028Z,95060.31
2022-08-05T04:27:57.275Z,95093.50
2022-08-05T04:31:41.002Z,95094.06
2022-08-05T04:35:27.104Z,95131.06
2022-08-05T04:39:33.524Z,95115.88
2022-08-05T04:43:21.940Z,95121.13
2022-08-05T04:47:09.154Z,95118.91
2022-08-05T04:51:02.949Z,95115.88
2022-08-05T04:54:52.863Z,95124.56
2022-08-05T04:58:35.654Z,95124.94
2022-08-05T05:02:36.894Z,95116.06
2022-08-05T05:06:36.656Z,95122.34
2022-08-05T05:10:24.923Z,95124.75
2022-08-05T05:14:16.048Z,95133.41
2022-08-05T05:17:59.216Z,95127.13
2022-08-05T05:21:43.423Z,95132.94
2022-08-05T05:25:33.047Z,95140.19
2022-08-05T05:29:23.825Z,95132.63
2022-08-05T05:33:24.049Z,95142.63
2022-08-05T05:37:08.258Z,95134.34
2022-08-05T05:40:51.868Z,95146.34
2022-08-05T05:44:36.755Z,95149.38
2022-08-05T05:48:20.605Z,95143.22
2022-08-05T05:52:28.409Z,95140.25
2022-08-05T05:56:14.134Z,95148.66
2022-08-05T06:00:11.433Z,95149.44
2022-08-05T06:04:02.056Z,95142.66
2022-08-05T06:08:01.218Z,95149.25
2022-08-05T06:11:58.969Z,95155.72
2022-08-05T06:16:29.146Z,95143.38
2022-08-05T06:19:45.673Z,95147.66
2022-08-05T06:23:44.113Z,95145.53
2022-08-05T06:28:09.142Z,95142.06
2022-08-05T06:31:32.138Z,95153.94
2022-08-05T06:36:02.906Z,95147.63
2022-08-05T06:39:20.529Z,95154.00
2022-08-05T06:43:04.687Z,95159.97
2022-08-05T06:46:47.436Z,95179.38
2022-08-05T06:50:33.749Z,95179.63
2022-08-05T06:54:18.968Z,95164.19
2022-08-05T06:58:29.593Z,95177.47
2022-08-05T07:02:06.215Z,95179.34
2022-08-05T07:05:48.998Z,95170.47
2022-08-05T07:09:32.547Z,95173.28
2022-08-05T07:13:59.720Z,95165.78
2022-08-05T07:17:59.876Z,95186.38
2022-08-05T07:21:45.807Z,95190.78
2022-08-05T07:25:54.930Z,95198.00
2022-08-05T07:30:30.128Z,95208.66
2022-08-05T07:33:44.399Z,95225.81
2022-08-05T07:37:36.009Z,95212.66
2022-08-05T07:42:13.955Z,95227.91
2022-08-05T07:45:56.516Z,95230.13
2022-08-05T07:49:29.882Z,95242.72
2022-08-05T07:53:13.314Z,95242.34
2022-08-05T07:57:02.057Z,95273.22
2022-08-05T08:00:59.277Z,95267.50
2022-08-05T08:04:42.550Z,95268.91
2022-08-05T08:08:27.680Z,95261.03
2022-08-05T08:12:27.225Z,95266.91
2022-08-05T08:16:35.578Z,95276.47
2022-08-05T08:20:44.175Z,95277.56
2022-08-05T08:24:21.485Z,95292.06
2022-08-05T08:28:35.778Z,95299.25
2022-08-05T08:32:27.903Z,95300.66
2022-08-05T08:36:38.618Z,95310.13
2022-08-05T08:40:13.960Z,95312.22
2022-08-05T08:45:16.775Z,95319.50
2022-08-05T08:48:12.670Z,95326.59
2022-08-05T08:52:14.473Z,95333.59
2022-08-05T08:56:04.713Z,95352.53
2022-08-05T08:59:48.940Z,95334.34
2022-08-05T09:03:40.483Z,95333.94
2022-08-05T09:07:28.860Z,95338.78
2022-08-05T09:11:13.966Z,95350.75
2022-08-05T09:15:06.180Z,95354.03
2022-08-05T09:18:50.709Z,95361.72
2022-08-05T09:23:09.477Z,95359.34
2022-08-05T09:26:53.644Z,95358.53
2022-08-05T09:30:36.511Z,95371.31
2022-08-05T09:34:23.106Z,95364.38
2022-08-05T09:38:12.310Z,95368.00
2022-08-05T09:42:01.873Z,95359.78
2022-08-05T09:46:06.152Z,95367.03
2022-08-05T09:50:00.799Z,95358.22
2022-08-05T09:53:53.772Z,95365.06
2022-08-05T09:57:39.970Z,95375.34
2022-08-05T10:01:31.769Z,95374.56
2022-08-05T10:05:18.128Z,95374.06
2022-08-05T10:09:27.606Z,95371.97
2022-08-05T10:13:11.485Z,95373.06
2022-08-05T10:16:58.844Z,95379.97
2022-08-05T10:20:47.712Z,95378.19
2022-08-05T10:24:33.384Z,95378.38
2022-08-05T10:28:29.656Z,95381.91
2022-08-05T10:33:01.707Z,95387.72
2022-08-05T10:36:18.181Z,95381.19
2022-08-05T10:40:18.510Z,95389.34
2022-08-05T10:44:06.370Z,95378.72
2022-08-05T10:48:30.341Z,95371.47
2022-08-05T10:52:00.324Z,95375.63
2022-08-05T10:56:11.141Z,95377.22
2022-08-05T11:00:18.631Z,95386.22
2022-08-05T11:04:08.182Z,95375.88
2022-08-05T11:08:21.672Z,95371.34
2022-08-05T11:12:06.829Z,95365.41
2022-08-05T11:16:47.853Z,95363.69
2022-08-05T11:20:38.989Z,95358.47
2022-08-05T11:24:29.969Z,95363.44
2022-08-05T11:28:39.060Z,95361.06
2022-08-05T11:32:27.630Z,95352.28
2022-08-05T11:36:11.581Z,95358.03
2022-08-05T11:40:02.912Z,95348.97
2022-08-05T11:44:04.819Z,95357.84
2022-08-05T11:47:50.580Z,95358.69
2022-08-05T11:51:44.320Z,95353.06
2022-08-05T11:55:36.467Z,95343.66
2022-08-05T11:59:21.447Z,95338.63
2022-08-05T12:03:28.610Z,95336.66
2022-08-05T12:07:14.239Z,95328.31
2022-08-05T12:11:00.374Z,95339.31
2022-08-05T12:14:48.578Z,95336.78
2022-08-05T12:18:34.808Z,95334.63
2022-08-05T12:22:23.728Z,95324.91
2022-08-05T12:26:07.984Z,95321.16
2022-08-05T12:30:03.300Z,95324.81
2022-08-05T12:33:46.584Z,95319.09
2022-08-05T12:37:29.867Z,95300.97
2022-08-05T12:41:16.123Z,95307.88
2022-08-05T12:45:09.407Z,95303.50
2022-08-05T12:49:05.697Z,95300.22
2022-08-05T12:52:59.427Z,95306.41
2022-08-05T12:56:45.155Z,95289.06
2022-08-05T13:01:59.859Z,95284.72
2022-08-05T13:04:34.346Z,95288.31
2022-08-05T13:08:26.992Z,95283.81
2022-08-05T13:12:16.214Z,95290.84
2022-08-05T13:16:00.035Z,95284.22
2022-08-05T13:19:52.196Z,95290.69
2022-08-05T13:23:35.741Z,95288.44
2022-08-05T13:27:37.489Z,95277.72
2022-08-05T13:32:03.486Z,95281.81
2022-08-05T13:35:43.118Z,95280.84
2022-08-05T13:40:15.774Z,95267.75
2022-08-05T13:43:45.098Z,95280.56
2022-08-05T13:48:08.463Z,95272.56
2022-08-05T13:51:41.659Z,95268.81
2022-08-05T13:55:41.247Z,95266.66
2022-08-05T13:59:27.304Z,95255.31
2022-08-05T14:03:10.921Z,95260.28
2022-08-05T14:07:11.905Z,95256.22
2022-08-05T14:10:59.728Z,95244.28
2022-08-05T14:14:53.552Z,95245.28
2022-08-05T14:18:36.291Z,95226.34
2022-08-05T14:22:21.477Z,95224.66
2022-08-05T14:26:04.907Z,95227.22
2022-08-05T14:29:51.360Z,95216.88
2022-08-05T14:33:59.755Z,95202.09
2022-08-05T14:37:48.185Z,95196.81
2022-08-05T14:41:32.779Z,95192.31
2022-08-05T14:45:15.504Z,95185.69
2022-08-05T14:49:06.225Z,95176.59
2022-08-05T14:52:53.396Z,95176.72
2022-08-05T14:56:44.202Z,95165.81
2022-08-05T15:00:29.574Z,95153.09
2022-08-05T15:04:13.710Z,95163.47
2022-08-05T15:08:05.719Z,95169.72
2022-08-05T15:11:55.422Z,95175.25
2022-08-05T15:15:55.542Z,95184.75
2022-08-05T15:19:40.534Z,95180.19
2022-08-05T15:23:31.749Z,95193.34
2022-08-05T15:27:15.713Z,95194.16
2022-08-05T15:31:03.661Z,95193.38
2022-08-05T15:34:49.879Z,95205.69
2022-08-05T15:38:40.779Z,95200.94
2022-08-05T15:42:50.349Z,95200.88
2022-08-05T15:46:27.104Z,95192.28
2022-08-05T15:50:15.358Z,95195.50
2022-08-05T15:53:58.968Z,95194.06
2022-08-05T15:57:42.452Z,95189.28
2022-08-05T16:01:29.459Z,95191.63
2022-08-05T16:05:28.337Z,95191.94
2022-08-05T16:09:14.565Z,95195.06
2022-08-05T16:12:57.473Z,95201.22
2022-08-05T16:16:40.379Z,95198.16
2022-08-05T16:20:24.542Z,95207.03
2022-08-05T16:24:07.745Z,95203.13
2022-08-05T16:28:10.627Z,95198.69
2022-08-05T16:31:56.671Z,95195.13
2022-08-05T16:35:42.457Z,95203.47
2022-08-05T16:40:04.841Z,95201.22
2022-08-05T16:43:31.877Z,95201.03
2022-08-05T16:47:28.631Z,95207.53
2022-08-05T16:51:18.905Z,95226.28
2022-08-05T16:55:04.314Z,95216.22
2022-08-05T16:58:47.249Z,95223.34
2022-08-05T17:02:30.109Z,95216.00
2022-08-05T17:06:13.016Z,95216.59
2022-08-05T17:10:00.862Z,95214.00
2022-08-05T17:13:45.771Z,95216.06
2022-08-05T17:18:02.306Z,95222.50
2022-08-05T17:21:36.911Z,95213.75
2022-08-05T17:25:33.503Z,95217.88
2022-08-05T17:29:33.339Z,95225.91
2022-08-05T17:33:23.119Z,95209.06
2022-08-05T17:37:29.496Z,95208.06
2022-08-05T17:41:22.948Z,95215.44
2022-08-05T17:45:20.491Z,95223.00
2022-08-05T17:49:04.329Z,95227.81
2022-08-05T17:52:53.266Z,95224.34
2022-08-05T17:56:38.948Z,95220.88
2022-08-05T18:00:21.783Z,95222.66
2022-08-05T18:04:13.602Z,95228.56
2022-08-05T18:08:04.300Z,95220.28
2022-08-05T18:11:52.408Z,95225.53
2022-08-05T18:15:38.506Z,95220.16
2022-08-05T18:19:22.843Z,95227.47
2022-08-05T18:23:11.243Z,95219.38
2022-08-05T18:26:56.544Z,95224.78
2022-08-05T18:30:41.103Z,95244.16
2022-08-05T18:34:23.858Z,95232.53
2022-08-05T18:38:25.929Z,95241.28
2022-08-05T18:42:11.503Z,95254.00
2022-08-05T18:45:55.355Z,95249.38
2022-08-05T18:49:58.227Z,95252.69
2022-08-05T18:53:50.181Z,95244.75
2022-08-05T18:57:43.359Z,95244.41
2022-08-05T19:01:48.018Z,95259.50
2022-08-05T19:06:12.512Z,95304.16
2022-08-05T19:09:41.304Z,95327.22
2022-08-05T19:13:29.251Z,95343.63
2022-08-05T19:17:12.960Z,95356.13
2022-08-05T19:20:56.080Z,95387.34
2022-08-05T19:24:39.231Z,95426.84
2022-08-05T19:28:41.824Z,95461.59
2022-08-05T19:32:26.140Z,95500.47
2022-08-05T19:36:10.795Z,95506.31
2022-08-05T19:39:58.192Z,95502.53
2022-08-05T19:44:05.346Z,95499.13
2022-08-05T19:47:45.573Z,95487.72
2022-08-05T19:52:06.062Z,95470.34
2022-08-05T19:56:12.446Z,95445.50
2022-08-05T19:59:56.406Z,95428.91
2022-08-05T20:03:41.215Z,95414.50
2022-08-05T20:07:46.345Z,95401.63
2022-08-05T20:11:28.095Z,95402.72
2022-08-05T20:15:12.690Z,95387.19
2022-08-05T20:18:59.033Z,95385.03
2022-08-05T20:22:44.224Z,95402.69
2022-08-05T20:26:29.731Z,95423.03
2022-08-05T20:30:14.538Z,95425.69
2022-08-05T20:34:01.050Z,95421.13
2022-08-05T20:38:05.637Z,95410.38
2022-08-05T20:41:48.176Z,95419.47
2022-08-05T20:45:56.690Z,95437.16
2022-08-05T20:49:39.342Z,95479.22
2022-08-05T20:53:36.494Z,95519.38
2022-08-05T20:57:42.096Z,95549.63
2022-08-05T21:01:37.477Z,95565.38
2022-08-05T21:05:22.085Z,95565.31
2022-08-05T21:09:05.920Z,95572.22
2022-08-05T21:12:57.953Z,95574.91
2022-08-05T21:16:53.378Z,95567.97
2022-08-05T21:20:36.329Z,95578.13
2022-08-05T21:24:19.546Z,95591.50
2022-08-05T21:28:03.377Z,95592.84
2022-08-05T21:31:46.279Z,95611.03
2022-08-05T21:35:43.835Z,95621.94
2022-08-05T21:39:40.386Z,95644.25
2022-08-05T21:43:24.692Z,95641.38
2022-08-05T21:47:32.724Z,95644.09
2022-08-05T21:51:25.179Z,95647.53
2022-08-05T21:55:15.035Z,95665.53
2022-08-05T21:58:58.050Z,95671.22
2022-08-05T22:02:42.493Z,95685.13
2022-08-05T22:06:34.815Z,95677.81
2022-08-05T22:10:26.561Z,95658.78
2022-08-05T22:14:33.536Z,95655.56
2022-08-05T22:18:15.179Z,95656.97
2022-08-05T22:22:03.862Z,95650.91
2022-08-05T22:26:10.334Z,95665.13
2022-08-05T22:29:54.439Z,95660.03
2022-08-05T22:33:57.387Z,95672.28
2022-08-05T22:37:58.284Z,95669.53
2022-08-05T22:42:10.875Z,95654.84
2022-08-05T22:45:46.396Z,95654.03
2022-08-05T22:50:19.892Z,95647.38
2022-08-05T22:53:35.629Z,95677.56
2022-08-05T22:57:18.858Z,95680.00
2022-08-05T23:01:01.643Z,95683.97
2022-08-05T23:04:52.080Z,95683.38
2022-08-05T23:08:39.259Z,95671.59
2022-08-05T23:12:24.457Z,95693.66
2022-08-05T23:16:07.403Z,95710.44
2022-08-05T23:19:56.203Z,95705.56
2022-08-05T23:23:40.698Z,95705.47
2022-08-05T23:27:24.046Z,95707.41
2022-08-05T23:31:16.953Z,95695.69
2022-08-05T23:35:00.519Z,95699.59
2022-08-05T23:38:44.798Z,95704.13
2022-08-05T23:42:29.230Z,95717.28
2022-08-05T23:46:19.618Z,95713.44
2022-08-05T23:50:09.560Z,95719.06
2022-08-05T23:53:53.959Z,95725.47
2022-08-05T23:57:44.021Z,95727.72
